createdAt,value
2018-02-14T15:47:52.760Z,19.30
2018-02-14T15:50:20.349Z,18.23
2018-02-14T15:52:47.968Z,18.63
2018-02-14T15:55:15.567Z,17.90
2018-02-14T15:57:45.037Z,16.73
2018-02-14T16:00:12.611Z,16.40
2018-02-14T16:02:40.228Z,11.97
2018-02-14T16:05:08.581Z,14.77
2018-02-14T16:07:37.081Z,12.63
2018-02-14T16:10:04.688Z,13.10
2018-02-14T16:12:32.278Z,15.67
2018-02-14T16:14:59.872Z,13.27
2018-02-14T16:17:28.235Z,12.83
2018-02-14T16:19:55.836Z,12.37
2018-02-14T16:22:30.488Z,10.00
2018-02-14T16:24:58.083Z,10.40
2018-02-14T16:27:25.752Z,10.77
2018-02-14T16:29:53.384Z,12.87
2018-02-14T16:32:20.972Z,10.53
2018-02-14T16:34:48.575Z,11.77
2018-02-14T16:37:25.043Z,10.83
2018-02-14T16:39:52.625Z,8.70
2018-02-14T16:42:20.198Z,10.83
2018-02-14T16:44:47.786Z,12.10
2018-02-14T16:47:15.391Z,10.07
2018-02-14T16:49:42.975Z,21.43
2018-02-14T16:52:10.573Z,14.27
2018-02-14T16:54:38.145Z,11.70
2018-02-14T16:57:05.734Z,10.20
2018-02-14T16:59:33.867Z,7.13
2018-02-14T17:02:01.442Z,14.37
2018-02-14T17:04:29.033Z,10.50
2018-02-14T17:06:56.626Z,9.27
2018-02-14T17:09:24.213Z,11.77
2018-02-14T17:11:51.781Z,10.70
2018-02-14T17:14:19.368Z,8.90
2018-02-14T17:16:47.291Z,12.90
2018-02-14T17:19:14.932Z,15.17
2018-02-14T17:21:42.565Z,21.60
2018-02-14T17:24:10.147Z,17.77
2018-02-14T17:26:37.748Z,16.90
2018-02-14T17:29:05.375Z,14.77
2018-02-14T17:31:32.969Z,20.43
2018-02-14T17:34:00.565Z,18.27
2018-02-14T17:36:28.967Z,16.97
2018-02-14T17:38:56.693Z,17.73
2018-02-14T17:41:25.377Z,19.50
2018-02-14T17:43:54.037Z,25.53
2018-02-14T17:46:21.690Z,23.40
2018-02-14T17:48:49.314Z,15.65
2018-02-14T17:51:16.918Z,26.37
2018-02-14T17:53:44.514Z,19.93
2018-02-14T17:56:12.090Z,13.00
2018-02-14T17:58:39.691Z,18.17
2018-02-14T18:01:08.033Z,10.70
2018-02-14T18:03:35.622Z,13.83
2018-02-14T18:06:03.992Z,17.57
2018-02-14T18:08:31.562Z,15.07
2018-02-14T18:10:59.916Z,14.90
2018-02-14T18:13:27.507Z,9.83
2018-02-14T18:15:55.855Z,11.50
2018-02-14T18:18:23.456Z,11.37
2018-02-14T18:20:51.825Z,13.13
2018-02-14T18:23:20.217Z,12.80
2018-02-14T18:25:48.579Z,9.07
2018-02-14T18:28:16.942Z,9.03
2018-02-14T18:30:44.525Z,6.53
2018-02-14T18:33:12.870Z,8.43
2018-02-14T18:35:40.461Z,9.20
2018-02-14T18:38:08.047Z,9.53
2018-02-14T18:40:35.628Z,12.57
2018-02-14T18:43:03.271Z,8.33
2018-02-14T18:45:30.865Z,6.70
2018-02-14T18:47:58.441Z,9.47
2018-02-14T18:50:26.035Z,7.67
2018-02-14T18:52:54.378Z,8.53
2018-02-14T18:55:21.969Z,8.63
2018-02-14T18:57:50.336Z,7.43
2018-02-14T19:00:17.926Z,6.17
2018-02-14T19:02:46.271Z,12.47
2018-02-14T19:05:13.866Z,5.97
2018-02-14T19:07:42.207Z,9.37
2018-02-14T19:10:09.782Z,8.10
2018-02-14T19:12:37.398Z,8.90
2018-02-14T19:15:04.981Z,6.10
2018-02-14T19:17:32.544Z,4.50
2018-02-14T19:20:00.172Z,9.90
2018-02-14T19:22:28.290Z,5.67
2018-02-14T19:24:55.856Z,5.73
2018-02-14T19:27:23.456Z,5.03
2018-02-14T19:29:51.040Z,6.87
2018-02-14T19:32:18.629Z,5.77
2018-02-14T19:34:46.227Z,5.87
2018-02-14T19:37:14.566Z,4.53
2018-02-14T19:39:42.138Z,8.10
2018-02-14T19:42:09.752Z,5.33
2018-02-14T19:44:37.342Z,4.80
2018-02-14T19:47:04.971Z,6.10
2018-02-14T19:49:32.571Z,7.33
2018-02-14T19:52:00.144Z,5.73
2018-02-14T19:54:27.727Z,3.57
2018-02-14T19:56:56.162Z,8.67
2018-02-14T19:59:23.833Z,6.13
2018-02-14T20:01:51.518Z,6.23
2018-02-14T20:04:19.591Z,13.93
2018-02-14T20:06:47.423Z,7.20
2018-02-14T20:09:15.228Z,8.40
2018-02-14T20:11:43.769Z,16.07
2018-02-14T20:14:11.449Z,12.20
2018-02-14T20:16:40.239Z,10.03
2018-02-14T20:19:07.974Z,13.37
2018-02-14T20:21:35.569Z,9.57
2018-02-14T20:24:03.179Z,12.23
2018-02-14T20:26:31.614Z,12.47
2018-02-14T20:28:59.332Z,11.13
2018-02-14T20:31:26.990Z,8.13
2018-02-14T20:33:54.725Z,10.07
2018-02-14T20:36:23.102Z,9.17
2018-02-14T20:38:50.719Z,11.10
2018-02-14T20:41:18.332Z,12.70
2018-02-14T20:43:46.132Z,13.03
2018-02-14T20:46:13.737Z,14.30
2018-02-14T20:48:41.407Z,15.03
2018-02-14T20:51:08.989Z,17.13
2018-02-14T20:53:37.340Z,21.03
2018-02-14T20:56:04.943Z,13.93
2018-02-14T20:58:33.290Z,16.90
2018-02-14T21:01:00.916Z,12.53
2018-02-14T21:03:28.530Z,14.20
2018-02-14T21:05:56.137Z,14.87
2018-02-14T21:08:23.710Z,14.00
2018-02-14T21:10:51.314Z,18.90
2018-02-14T21:13:18.888Z,16.97
2018-02-14T21:15:47.247Z,12.60
2018-02-14T21:18:14.868Z,11.43
2018-02-14T21:20:42.446Z,11.40
2018-02-14T21:23:10.058Z,10.63
2018-02-14T21:25:38.423Z,9.10
2018-02-14T21:28:06.767Z,14.13
2018-02-14T21:30:34.335Z,8.83
2018-02-14T21:33:01.925Z,9.13
2018-02-14T21:35:30.266Z,8.70
2018-02-14T21:37:57.894Z,6.13
2018-02-14T21:40:25.498Z,14.10
2018-02-14T21:42:53.073Z,10.90
2018-02-14T21:45:20.669Z,10.47
2018-02-14T21:47:48.290Z,11.93
2018-02-14T21:50:18.978Z,9.03
2018-02-14T21:52:46.547Z,11.57
2018-02-14T21:55:14.159Z,6.57
2018-02-14T21:57:41.738Z,10.33
2018-02-14T22:00:10.083Z,6.67
2018-02-14T22:02:37.680Z,11.80
2018-02-14T22:05:06.024Z,11.50
2018-02-14T22:07:33.600Z,7.23
2018-02-14T22:10:01.189Z,7.20
2018-02-14T22:12:28.766Z,5.43
2018-02-14T22:14:56.347Z,7.07
2018-02-14T22:17:23.937Z,6.83
2018-02-14T22:19:51.541Z,7.23
2018-02-14T22:22:19.118Z,5.23
2018-02-14T22:24:46.712Z,6.50
2018-02-14T22:27:14.297Z,6.53
2018-02-14T22:29:42.641Z,9.13
2018-02-14T22:32:10.241Z,8.30
2018-02-14T22:34:38.586Z,6.87
2018-02-14T22:37:06.165Z,8.70
2018-02-14T22:39:33.782Z,6.33
2018-02-14T22:42:01.349Z,5.67
2018-02-14T22:44:28.944Z,7.03
2018-02-14T22:46:56.535Z,5.57
2018-02-14T22:49:24.882Z,4.87
2018-02-14T22:51:52.468Z,4.70
2018-02-14T22:54:20.820Z,7.10
2018-02-14T22:56:48.404Z,7.57
2018-02-14T22:59:16.746Z,8.27
2018-02-14T23:01:44.347Z,3.60
2018-02-14T23:04:12.691Z,4.27
2018-02-14T23:06:40.260Z,6.33
2018-02-14T23:09:07.850Z,4.83
2018-02-14T23:11:36.321Z,3.40
2018-02-14T23:14:03.905Z,6.27
2018-02-14T23:16:31.503Z,4.90
2018-02-14T23:18:59.083Z,7.23
2018-02-14T23:21:26.671Z,4.77
2018-02-14T23:23:55.053Z,5.63
2018-02-14T23:26:23.393Z,4.07
2018-02-14T23:28:50.967Z,5.07
2018-02-14T23:31:18.556Z,5.63
2018-02-14T23:33:46.906Z,6.70
2018-02-14T23:36:14.481Z,5.07
2018-02-14T23:38:42.074Z,4.33
2018-02-14T23:41:09.657Z,4.57
2018-02-14T23:43:37.269Z,3.43
2018-02-14T23:46:04.861Z,3.60
2018-02-14T23:48:32.442Z,4.30
2018-02-14T23:51:00.018Z,4.17
2018-02-14T23:53:27.624Z,4.20
2018-02-14T23:55:55.992Z,6.83
2018-02-14T23:58:23.582Z,5.10
